Valley International Airport Harlingen US
ICAO: KHRL
IATA: HRL
Category: Medium
Scheduled Services: Yes

Elevation: 36 ft
TransAlt. 18000 ft.

Airport Communications:
APP/DEP:120.7
ATIS:124.85
CTAF:119.3
GND:121.7
SAN ANGELO RDO:122.35
TWR:119.3
UNICOM:122.95

KHRL Zoom In..

If you have problems with the map follow the link
https://www.worldairports.se/pages/airport.php?
ICAO=KHRL

Runways:

(A) RW 13 length 7257 ft width 150 ft
---- / hdg 131

(B) RW 17L length 5949 ft width 150 ft
---- / hdg 176

(C) RW 17R length 8301 ft width 150 ft
ILS 111.50 / hdg 176

(D) RW 31 length 7257 ft width 150 ft
---- / hdg 311

(E) RW 35L length 8301 ft width 150 ft
---- / hdg 356

(F) RW 35R length 5949 ft width 150 ft
---- / hdg 356

Location; KHRL
Day. 22 / Time. 09.52 Zulu
* Altimeter: 30.06
* Temperature: 17° c. 62.6°f.
* Wind from: 140° Speed 10 kn.
Dewpoint: 15° c.
Visibility: 9 Statute Miles.
Conditions: Light Rain.

KHRL 220952Z AUTO 14010KT 9SM -RA 17/15 A3006 RMK AO2 RAB19 SLP180 P0000 T01670150 $


Wind From 140°
Speed 10 kn.

 
 
jpsmedia worldairports.se 2020   terms of use